Time;durP1;ratioP1;P1;durP2;ratioP2;P2;SDS_P1;SDS_P2;PMS_P1;PMS_P2;Temp;Humidity;BMP_temperature;BMP_pressure;BME280_temperature;BME280_humidity;BME280_pressure;Samples;Min_cycle;Max_cycle;Signal;HPM_P1;HPM_P2
2021/03/17 00:00:50;;;;;;;1.13;1.00;;;7.20;99.90;;;;;;5047586;28;20104;-61
2021/03/17 00:03:17;;;;;;;2.47;1.30;;;7.10;99.90;;;;;;5066601;28;20453;-61
2021/03/17 00:05:48;;;;;;;1.88;1.50;;;7.20;99.90;;;;;;5066922;28;20021;-61
2021/03/17 00:08:20;;;;;;;2.22;1.58;;;7.20;99.90;;;;;;5066508;28;20032;-60
2021/03/17 00:10:52;;;;;;;2.95;1.50;;;7.30;99.90;;;;;;5066547;28;20033;-60
2021/03/17 00:13:25;;;;;;;1.83;1.50;;;7.20;99.90;;;;;;5066548;28;20028;-61
2021/03/17 00:15:56;;;;;;;3.17;1.33;;;7.10;99.90;;;;;;5067503;28;20052;-61
2021/03/17 00:18:25;;;;;;;3.47;1.27;;;7.10;99.90;;;;;;5067212;28;20031;-61
2021/03/17 00:20:53;;;;;;;2.30;1.40;;;7.10;99.90;;;;;;5067061;28;20029;-59
2021/03/17 00:23:21;;;;;;;2.70;1.75;;;7.20;99.90;;;;;;5067395;28;20059;-60
2021/03/17 00:25:49;;;;;;;3.42;2.00;;;7.20;99.90;;;;;;5067293;28;20028;-60
2021/03/17 00:28:17;;;;;;;3.22;1.80;;;7.20;99.90;;;;;;5066526;28;20032;-60
2021/03/17 00:30:45;;;;;;;5.43;2.35;;;7.20;99.90;;;;;;5065689;28;20454;-60
2021/03/17 00:33:15;;;;;;;3.63;2.03;;;7.20;99.90;;;;;;5066898;28;20031;-60
2021/03/17 00:35:44;;;;;;;5.72;3.05;;;7.30;99.90;;;;;;5066681;28;20016;-60
2021/03/17 00:38:12;;;;;;;7.47;3.35;;;7.30;99.90;;;;;;5060482;28;20020;-60
2021/03/17 00:40:40;;;;;;;5.93;2.75;;;7.20;99.90;;;;;;5046990;28;20060;-60
2021/03/17 00:43:06;;;;;;;6.30;2.53;;;7.10;99.90;;;;;;5047111;28;20102;-60
2021/03/17 00:45:35;;;;;;;4.93;2.67;;;7.00;99.90;;;;;;5046611;28;20096;-60
2021/03/17 00:48:02;;;;;;;6.05;2.80;;;7.10;99.90;;;;;;5047314;28;20434;-60
2021/03/17 00:50:28;;;;;;;8.63;4.18;;;7.10;99.90;;;;;;5046354;28;20341;-60
2021/03/17 00:52:55;;;;;;;8.48;3.28;;;7.00;99.90;;;;;;5046361;28;20037;-60
2021/03/17 00:55:22;;;;;;;5.07;2.90;;;7.00;99.90;;;;;;5045325;28;20025;-60
2021/03/17 00:57:51;;;;;;;2.95;1.73;;;6.90;99.90;;;;;;5046838;28;20027;-60
2021/03/17 01:00:19;;;;;;;5.80;2.05;;;7.10;99.90;;;;;;5046321;28;20499;-60
2021/03/17 01:02:45;;;;;;;2.75;1.83;;;7.10;99.90;;;;;;5046566;28;20079;-60
2021/03/17 01:05:12;;;;;;;1.70;1.15;;;7.20;99.90;;;;;;5046283;28;20431;-60
2021/03/17 01:07:40;;;;;;;2.30;1.35;;;7.10;99.90;;;;;;5046313;28;20028;-60
2021/03/17 01:10:13;;;;;;;2.78;1.20;;;7.10;99.90;;;;;;5046686;28;20060;-60
2021/03/17 01:12:41;;;;;;;2.35;1.13;;;7.10;99.90;;;;;;5046162;28;20112;-60
2021/03/17 01:15:09;;;;;;;2.95;1.30;;;7.20;99.90;;;;;;5045176;28;20079;-59
2021/03/17 01:17:36;;;;;;;1.33;1.00;;;7.20;99.90;;;;;;5046627;28;20025;-60
2021/03/17 01:20:03;;;;;;;1.73;1.10;;;7.10;99.90;;;;;;5046702;28;20021;-60
2021/03/17 01:22:32;;;;;;;1.85;1.20;;;7.00;99.90;;;;;;5045755;28;20591;-60
2021/03/17 01:25:01;;;;;;;1.75;1.25;;;7.00;99.90;;;;;;5045950;28;20159;-61
2021/03/17 01:27:29;;;;;;;1.27;1.00;;;7.10;99.90;;;;;;5046089;28;20033;-60
2021/03/17 01:29:58;;;;;;;1.33;0.93;;;6.90;99.90;;;;;;5046232;28;20025;-61
2021/03/17 01:32:25;;;;;;;2.17;0.85;;;6.60;99.90;;;;;;5045504;28;20321;-60
2021/03/17 01:34:52;;;;;;;1.75;1.00;;;6.70;99.90;;;;;;5045645;28;20376;-60
2021/03/17 01:37:20;;;;;;;3.97;1.50;;;6.80;99.90;;;;;;5045672;28;20033;-60
2021/03/17 01:39:48;;;;;;;1.90;1.10;;;6.70;99.90;;;;;;5044800;28;20096;-60
2021/03/17 01:42:17;;;;;;;2.05;1.02;;;6.70;99.90;;;;;;5045809;28;20052;-60
2021/03/17 01:44:44;;;;;;;2.33;0.95;;;6.90;99.90;;;;;;5045827;28;20033;-59
2021/03/17 01:47:12;;;;;;;2.13;1.20;;;7.10;99.90;;;;;;5045828;28;20061;-60
2021/03/17 01:49:38;;;;;;;1.45;1.25;;;7.00;99.90;;;;;;5045262;28;20029;-60
2021/03/17 01:52:06;;;;;;;4.18;2.55;;;7.10;99.90;;;;;;5046299;28;20051;-60
2021/03/17 01:54:33;;;;;;;2.83;1.80;;;7.10;99.90;;;;;;5045030;28;20016;-60
2021/03/17 01:57:00;;;;;;;1.50;1.40;;;7.00;99.90;;;;;;5044961;28;20325;-60
2021/03/17 01:59:29;;;;;;;2.97;1.52;;;7.00;99.90;;;;;;5045128;28;20043;-60
2021/03/17 02:01:58;;;;;;;3.72;1.80;;;7.10;99.90;;;;;;5045415;28;20088;-60
2021/03/17 02:04:27;;;;;;;1.58;1.30;;;7.10;99.90;;;;;;5043573;28;20025;-60
2021/03/17 02:06:54;;;;;;;1.45;1.33;;;7.00;99.90;;;;;;5045391;28;20029;-60
2021/03/17 02:09:20;;;;;;;1.55;1.20;;;7.00;99.90;;;;;;5044480;28;20056;-59
2021/03/17 02:11:58;;;;;;;2.60;1.75;;;7.00;99.90;;;;;;5045074;28;20056;-59
2021/03/17 02:14:39;;;;;;;2.30;1.67;;;7.00;99.90;;;;;;5044701;28;20025;-59
2021/03/17 02:17:16;;;;;;;2.42;1.65;;;7.10;99.90;;;;;;5045988;28;20025;-59
2021/03/17 02:20:03;;;;;;;2.35;1.50;;;7.00;99.90;;;;;;5045117;28;20424;-60
2021/03/17 02:23:00;;;;;;;1.33;1.15;;;6.90;99.90;;;;;;5044987;28;20029;-60
2021/03/17 02:25:37;;;;;;;1.35;1.23;;;7.00;99.90;;;;;;5044617;28;20024;-60
2021/03/17 02:28:20;;;;;;;2.15;1.52;;;7.00;99.90;;;;;;5045577;28;20025;-60
2021/03/17 02:31:07;;;;;;;1.45;1.30;;;7.00;99.90;;;;;;5044832;28;20025;-60
2021/03/17 02:33:41;;;;;;;2.40;1.40;;;7.00;99.90;;;;;;5043625;28;20025;-60
2021/03/17 02:36:13;;;;;;;1.40;1.30;;;6.90;99.90;;;;;;5044918;28;20017;-60
2021/03/17 02:38:46;;;;;;;1.92;1.10;;;7.00;99.90;;;;;;5044445;28;20028;-59
2021/03/17 02:41:23;;;;;;;1.27;1.10;;;7.00;99.90;;;;;;5044690;28;20053;-59
2021/03/17 02:43:54;;;;;;;1.55;1.20;;;6.80;99.90;;;;;;5044635;28;20263;-59
2021/03/17 02:46:25;;;;;;;1.50;1.08;;;6.60;99.90;;;;;;5044486;28;20446;-60
2021/03/17 02:49:01;;;;;;;1.88;1.50;;;6.80;99.90;;;;;;5044455;28;20021;-60
2021/03/17 02:51:35;;;;;;;2.10;1.60;;;6.80;99.90;;;;;;5043886;28;20503;-60
2021/03/17 02:54:02;;;;;;;2.25;1.73;;;6.90;99.90;;;;;;5044843;28;20025;-59
2021/03/17 02:56:35;;;;;;;1.40;1.23;;;6.90;99.90;;;;;;5044314;28;20033;-60
2021/03/17 02:59:02;;;;;;;2.92;1.30;;;6.80;99.90;;;;;;5045244;28;20071;-60
2021/03/17 03:01:33;;;;;;;1.30;1.10;;;6.90;99.90;;;;;;5044200;28;20083;-60
2021/03/17 03:04:01;;;;;;;1.75;1.30;;;6.90;99.90;;;;;;5044475;28;20388;-59
2021/03/17 03:06:29;;;;;;;2.72;1.33;;;6.90;99.90;;;;;;5044031;28;20094;-59
2021/03/17 03:08:57;;;;;;;2.10;1.25;;;6.60;99.90;;;;;;5044146;28;20029;-59
2021/03/17 03:11:24;;;;;;;1.30;1.20;;;6.80;99.90;;;;;;5043748;28;20585;-59
2021/03/17 03:13:52;;;;;;;2.55;1.52;;;6.90;99.90;;;;;;5044251;28;20130;-60
2021/03/17 03:16:18;;;;;;;1.25;1.15;;;7.00;99.90;;;;;;5044108;28;20025;-59
2021/03/17 03:18:48;;;;;;;1.42;1.17;;;7.00;99.90;;;;;;5044231;28;20029;-59
2021/03/17 03:21:17;;;;;;;1.38;1.27;;;7.00;99.90;;;;;;5044365;28;20093;-59
2021/03/17 03:23:45;;;;;;;1.60;1.00;;;6.90;99.90;;;;;;5044521;28;20029;-59
2021/03/17 03:26:13;;;;;;;1.85;1.10;;;6.80;99.90;;;;;;5044377;28;20039;-59
2021/03/17 03:28:40;;;;;;;1.88;1.02;;;6.70;99.90;;;;;;5043960;28;20029;-59
2021/03/17 03:31:07;;;;;;;0.93;0.90;;;6.80;99.90;;;;;;5044310;28;20025;-60
2021/03/17 03:33:33;;;;;;;1.63;1.33;;;6.70;99.90;;;;;;5044301;28;20569;-60
2021/03/17 03:36:01;;;;;;;1.23;1.13;;;6.80;99.90;;;;;;5044058;28;20075;-60
2021/03/17 03:38:30;;;;;;;2.05;1.50;;;6.80;99.90;;;;;;5043817;28;20025;-60
2021/03/17 03:40:57;;;;;;;1.10;1.00;;;6.70;99.90;;;;;;5044282;28;20540;-60
2021/03/17 03:43:25;;;;;;;1.10;0.88;;;6.60;99.90;;;;;;5043786;28;20047;-60
2021/03/17 03:45:52;;;;;;;1.20;1.10;;;6.70;99.90;;;;;;5044174;28;20412;-59
2021/03/17 03:48:19;;;;;;;0.85;0.80;;;6.90;99.90;;;;;;5043555;28;20029;-59
2021/03/17 03:50:48;;;;;;;0.50;0.50;;;6.90;99.90;;;;;;5044136;28;20021;-59
2021/03/17 03:53:22;;;;;;;0.60;0.57;;;6.90;99.90;;;;;;5043988;28;20023;-59
2021/03/17 03:55:51;;;;;;;0.50;0.40;;;7.00;99.90;;;;;;5044098;28;20235;-61
2021/03/17 03:58:46;;;;;;;0.55;0.30;;;7.00;99.90;;;;;;5043785;28;20045;-59
2021/03/17 04:01:17;;;;;;;0.40;0.40;;;7.00;99.90;;;;;;5043862;28;20029;-59
2021/03/17 04:03:49;;;;;;;0.57;0.57;;;6.90;99.90;;;;;;5046311;28;20025;-58
2021/03/17 04:06:18;;;;;;;0.60;0.60;;;6.80;99.90;;;;;;5047846;28;20029;-58
2021/03/17 04:08:49;;;;;;;1.15;0.88;;;6.80;99.90;;;;;;5046880;28;20590;-58
2021/03/17 04:11:19;;;;;;;0.60;0.60;;;6.60;99.90;;;;;;5047324;28;20415;-59
2021/03/17 04:13:49;;;;;;;0.63;0.40;;;6.70;99.90;;;;;;5047813;28;20017;-58
2021/03/17 04:16:20;;;;;;;0.40;0.40;;;6.70;99.90;;;;;;5047151;28;20446;-58
2021/03/17 04:18:52;;;;;;;0.40;0.40;;;6.70;99.90;;;;;;5047371;28;20017;-58
2021/03/17 04:21:23;;;;;;;0.40;0.40;;;6.50;99.90;;;;;;5046995;28;20033;-58
2021/03/17 04:23:53;;;;;;;0.50;0.50;;;6.40;99.90;;;;;;5047183;28;20032;-58
2021/03/17 04:26:23;;;;;;;0.50;0.50;;;6.50;99.90;;;;;;5047180;28;20033;-58
2021/03/17 04:28:52;;;;;;;0.70;0.70;;;6.50;99.90;;;;;;5047338;28;20032;-58
2021/03/17 04:31:22;;;;;;;1.30;0.90;;;6.60;99.90;;;;;;5046807;28;20442;-58
2021/03/17 04:33:49;;;;;;;0.85;0.60;;;6.60;99.90;;;;;;5046892;28;20048;-58
2021/03/17 04:36:18;;;;;;;0.85;0.85;;;6.60;99.90;;;;;;5047157;28;20086;-58
2021/03/17 04:38:46;;;;;;;0.80;0.80;;;6.60;99.90;;;;;;5046982;28;20478;-58
2021/03/17 04:41:15;;;;;;;1.00;0.82;;;6.60;99.90;;;;;;5046826;28;20024;-58
2021/03/17 04:43:42;;;;;;;0.88;0.88;;;6.60;99.90;;;;;;5047216;28;20087;-58
2021/03/17 04:46:10;;;;;;;0.80;0.80;;;6.70;99.90;;;;;;5047151;28;20033;-59
2021/03/17 04:48:43;;;;;;;0.85;0.75;;;6.80;99.90;;;;;;5049181;28;20028;-58
2021/03/17 04:51:10;;;;;;;1.10;0.82;;;6.70;99.90;;;;;;5048439;28;20079;-59
2021/03/17 04:53:36;;;;;;;1.80;1.05;;;6.60;99.90;;;;;;5047453;28;20021;-58
2021/03/17 04:56:04;;;;;;;1.38;0.95;;;6.50;99.90;;;;;;5049177;28;20384;-58
2021/03/17 04:58:31;;;;;;;1.73;1.33;;;6.50;99.90;;;;;;5047777;28;20025;-58
2021/03/17 05:01:01;;;;;;;1.38;1.00;;;6.40;99.90;;;;;;5047581;28;20029;-58
2021/03/17 05:03:27;;;;;;;2.63;1.40;;;6.60;99.90;;;;;;5047406;28;20029;-58
2021/03/17 05:05:56;;;;;;;1.92;1.33;;;6.70;99.90;;;;;;5048134;28;20028;-58
2021/03/17 05:08:24;;;;;;;1.50;1.10;;;6.80;99.90;;;;;;5044900;28;20407;-59
2021/03/17 05:10:52;;;;;;;1.98;1.20;;;6.90;99.90;;;;;;5045863;28;20418;-59
2021/03/17 05:13:20;;;;;;;2.15;1.17;;;6.80;99.90;;;;;;5045687;28;20060;-59
2021/03/17 05:15:47;;;;;;;1.65;1.25;;;6.70;99.90;;;;;;5046226;28;20457;-59
2021/03/17 05:18:20;;;;;;;1.20;1.10;;;6.80;99.90;;;;;;5046100;28;20017;-59
2021/03/17 05:20:51;;;;;;;1.30;1.15;;;6.70;99.90;;;;;;5046208;28;20025;-59
2021/03/17 05:23:19;;;;;;;2.75;1.20;;;6.60;99.90;;;;;;5046017;28;20017;-59
2021/03/17 05:25:47;;;;;;;1.40;1.10;;;6.60;99.90;;;;;;5046149;28;20078;-59
2021/03/17 05:28:18;;;;;;;1.20;1.10;;;6.70;99.90;;;;;;5045517;28;20025;-60
2021/03/17 05:30:50;;;;;;;2.10;1.38;;;6.70;99.90;;;;;;5046477;28;20079;-60
2021/03/17 05:33:18;;;;;;;1.30;1.05;;;6.70;99.90;;;;;;5046928;28;20071;-59
2021/03/17 05:35:44;;;;;;;2.53;1.40;;;7.00;99.90;;;;;;5047587;28;20025;-60
2021/03/17 05:38:10;;;;;;;1.50;1.20;;;7.20;99.90;;;;;;5046488;28;20070;-60
2021/03/17 05:40:39;;;;;;;2.03;1.27;;;7.30;99.90;;;;;;5045432;28;20742;-60
2021/03/17 05:43:08;;;;;;;1.27;1.17;;;7.40;99.90;;;;;;5046463;28;20028;-60
2021/03/17 05:45:37;;;;;;;1.92;1.30;;;7.30;99.90;;;;;;5044708;28;20029;-60
2021/03/17 05:48:04;;;;;;;1.90;1.27;;;7.30;99.90;;;;;;5045913;28;20029;-61
2021/03/17 05:50:31;;;;;;;1.23;1.10;;;7.30;99.90;;;;;;5046109;28;20036;-60
2021/03/17 05:52:59;;;;;;;2.17;1.30;;;7.30;99.90;;;;;;5045403;28;20079;-60
2021/03/17 05:55:28;;;;;;;1.27;1.17;;;7.40;99.90;;;;;;5045349;28;20060;-60
2021/03/17 05:57:58;;;;;;;1.83;1.33;;;7.40;99.90;;;;;;5045436;28;20128;-60
2021/03/17 06:00:24;;;;;;;1.88;1.10;;;7.40;99.90;;;;;;5045358;28;20091;-60
2021/03/17 06:02:50;;;;;;;1.30;1.10;;;7.50;99.90;;;;;;5045459;28;20410;-60
2021/03/17 06:05:19;;;;;;;1.90;1.17;;;7.50;99.90;;;;;;5045417;28;20380;-60
2021/03/17 06:08:07;;;;;;;1.73;1.40;;;7.50;99.90;;;;;;5044646;28;20392;-60
2021/03/17 06:10:35;;;;;;;1.20;0.95;;;7.40;99.90;;;;;;5045583;28;20083;-60
2021/03/17 06:13:14;;;;;;;2.00;1.20;;;7.50;99.90;;;;;;5045481;28;20447;-60
2021/03/17 06:15:56;;;;;;;2.15;1.30;;;7.40;99.90;;;;;;5045084;28;20497;-60
2021/03/17 06:18:35;;;;;;;3.83;1.50;;;7.50;99.90;;;;;;5045200;28;20487;-60
2021/03/17 06:21:02;;;;;;;1.90;1.52;;;7.40;99.90;;;;;;5045344;28;20583;-60
2021/03/17 06:23:29;;;;;;;1.33;1.23;;;7.40;99.90;;;;;;5044858;28;20017;-60
2021/03/17 06:25:59;;;;;;;1.77;1.67;;;7.40;99.90;;;;;;5044557;28;20545;-60
2021/03/17 06:28:27;;;;;;;1.63;1.23;;;7.40;99.90;;;;;;5045255;28;20029;-60
2021/03/17 06:30:56;;;;;;;1.52;1.35;;;7.30;99.90;;;;;;5044442;28;20051;-61
2021/03/17 06:33:24;;;;;;;1.50;1.30;;;7.30;99.90;;;;;;5044827;28;20013;-61
2021/03/17 06:36:09;;;;;;;2.03;1.50;;;7.00;99.90;;;;;;5044946;28;20043;-59
2021/03/17 06:38:38;;;;;;;2.60;1.95;;;7.00;99.90;;;;;;5045340;28;20021;-59
2021/03/17 06:41:06;;;;;;;2.58;1.75;;;6.80;99.90;;;;;;5045163;28;20041;-60
2021/03/17 06:43:50;;;;;;;7.18;3.17;;;6.70;99.90;;;;;;5045419;28;20029;-62
2021/03/17 06:46:22;;;;;;;9.43;4.30;;;6.70;99.90;;;;;;5044255;28;20021;-60
2021/03/17 06:48:50;;;;;;;17.45;6.70;;;6.60;99.90;;;;;;5044434;28;20032;-60
2021/03/17 06:51:20;;;;;;;13.23;5.40;;;6.60;99.90;;;;;;5044028;28;20108;-60
2021/03/17 06:53:55;;;;;;;12.45;5.00;;;6.40;99.90;;;;;;5044858;28;20016;-60
2021/03/17 06:56:31;;;;;;;8.57;4.85;;;6.20;99.90;;;;;;5044773;28;20029;-60
2021/03/17 06:59:17;;;;;;;7.70;3.47;;;6.20;99.90;;;;;;5044046;28;20021;-60
2021/03/17 07:01:50;;;;;;;11.57;6.22;;;6.30;99.90;;;;;;5044173;28;20047;-60
2021/03/17 07:04:21;;;;;;;14.23;6.15;;;6.40;99.90;;;;;;5044274;28;20108;-60
2021/03/17 07:06:59;;;;;;;16.05;5.30;;;6.10;99.90;;;;;;5044303;28;20029;-60
2021/03/17 07:09:27;;;;;;;5.95;2.67;;;6.10;99.90;;;;;;5043941;28;20040;-59
2021/03/17 07:12:09;;;;;;;7.55;2.53;;;6.10;99.90;;;;;;5043951;28;20029;-60
2021/03/17 07:14:47;;;;;;;5.75;2.20;;;6.10;99.90;;;;;;5044836;28;20090;-60
2021/03/17 07:17:29;;;;;;;6.88;2.63;;;6.10;99.90;;;;;;5044201;28;20495;-60
2021/03/17 07:19:57;;;;;;;5.47;1.83;;;6.10;99.90;;;;;;5044148;28;20051;-63
2021/03/17 07:22:25;;;;;;;6.82;1.70;;;6.30;99.90;;;;;;5044359;28;20021;-60
2021/03/17 07:25:01;;;;;;;2.17;1.20;;;6.20;99.90;;;;;;5044170;28;20426;-61
2021/03/17 07:27:31;;;;;;;4.65;1.40;;;6.20;99.90;;;;;;5044154;28;20025;-60
2021/03/17 07:29:59;;;;;;;6.05;1.00;;;6.30;99.90;;;;;;5042462;28;20442;-60
2021/03/17 07:32:48;;;;;;;2.92;1.33;;;6.50;99.90;;;;;;5040371;28;20033;-60
2021/03/17 07:35:36;;;;;;;1.55;0.90;;;6.30;99.90;;;;;;5039051;28;20021;-60
2021/03/17 07:38:22;;;;;;;2.83;1.10;;;6.40;99.90;;;;;;5044306;28;20368;-60
2021/03/17 07:40:50;;;;;;;6.03;1.17;;;6.20;99.90;;;;;;5048052;28;20535;-60
2021/03/17 07:43:16;;;;;;;3.95;1.30;;;6.30;99.90;;;;;;5048319;28;20418;-60
2021/03/17 07:45:43;;;;;;;4.65;1.20;;;6.20;99.90;;;;;;5049066;28;20795;-60
2021/03/17 07:48:12;;;;;;;5.40;1.50;;;6.20;99.90;;;;;;5045374;28;20505;-60
2021/03/17 07:50:39;;;;;;;6.70;1.73;;;6.00;99.90;;;;;;5047149;28;20667;-60
2021/03/17 07:53:09;;;;;;;4.45;0.90;;;6.20;99.90;;;;;;5047954;28;20036;-61
2021/03/17 07:55:38;;;;;;;3.00;1.05;;;6.20;99.90;;;;;;5048220;28;20565;-61
2021/03/17 07:58:06;;;;;;;5.35;1.73;;;6.20;99.90;;;;;;5048446;28;20032;-61
2021/03/17 08:00:33;;;;;;;3.28;1.10;;;6.00;99.90;;;;;;5048197;28;20052;-61
2021/03/17 08:03:01;;;;;;;4.13;0.93;;;6.10;99.90;;;;;;5047651;28;20036;-61
2021/03/17 08:05:29;;;;;;;4.22;1.38;;;6.30;99.90;;;;;;5047569;28;20025;-61
2021/03/17 08:07:59;;;;;;;5.50;1.27;;;6.30;99.90;;;;;;5046917;28;20106;-60
2021/03/17 08:10:26;;;;;;;3.70;1.10;;;6.30;99.90;;;;;;5031759;28;20033;-61
2021/03/17 08:12:52;;;;;;;3.83;1.02;;;6.30;99.90;;;;;;5027364;28;20037;-61
2021/03/17 08:15:20;;;;;;;2.40;0.90;;;6.30;99.90;;;;;;5027243;28;20032;-61
2021/03/17 08:17:46;;;;;;;2.47;1.00;;;6.40;99.90;;;;;;5034165;28;20049;-61
2021/03/17 08:20:21;;;;;;;5.00;0.95;;;6.40;99.90;;;;;;5045879;28;20344;-61
2021/03/17 08:22:50;;;;;;;3.03;0.95;;;6.40;99.90;;;;;;5043199;28;20049;-61
2021/03/17 08:25:39;;;;;;;1.50;0.80;;;6.40;99.90;;;;;;5046648;28;20048;-61
2021/03/17 08:28:27;;;;;;;6.05;1.30;;;6.40;99.90;;;;;;5047659;28;20236;-60
2021/03/17 08:30:55;;;;;;;4.05;1.42;;;6.30;99.90;;;;;;5046645;28;20100;-61
2021/03/17 08:33:37;;;;;;;6.50;1.90;;;6.30;99.90;;;;;;5047194;28;20021;-61
2021/03/17 08:36:06;;;;;;;6.97;2.33;;;6.20;99.90;;;;;;5047540;28;20052;-61
2021/03/17 08:39:01;;;;;;;6.35;1.75;;;6.10;99.90;;;;;;5047386;28;20043;-61
2021/03/17 08:41:41;;;;;;;4.95;1.63;;;6.30;99.90;;;;;;5044931;28;20040;-60
2021/03/17 08:44:32;;;;;;;4.00;1.50;;;6.30;99.90;;;;;;5047643;28;20079;-60
2021/03/17 08:47:32;;;;;;;9.88;2.83;;;6.30;99.90;;;;;;5047318;28;20151;-61
2021/03/17 08:50:20;;;;;;;11.25;3.67;;;6.20;99.90;;;;;;5047628;28;20048;-60
2021/03/17 08:52:48;;;;;;;7.00;3.05;;;6.20;99.90;;;;;;5043471;28;20025;-61
2021/03/17 08:55:34;;;;;;;5.88;2.20;;;6.30;99.90;;;;;;5047298;28;20028;-61
2021/03/17 08:58:07;;;;;;;4.88;1.55;;;6.20;99.90;;;;;;5036973;28;20029;-61
2021/03/17 09:00:43;;;;;;;5.55;2.00;;;6.20;99.90;;;;;;5046349;28;20029;-61
2021/03/17 09:03:30;;;;;;;5.32;1.80;;;6.20;99.90;;;;;;5048277;28;20617;-61
2021/03/17 09:06:13;;;;;;;5.90;1.60;;;6.20;99.90;;;;;;5063279;28;20078;-63
2021/03/17 09:08:59;;;;;;;8.85;2.05;;;6.40;99.90;;;;;;5050847;28;20629;-63
2021/03/17 09:11:32;;;;;;;4.07;1.30;;;6.30;99.90;;;;;;5046079;28;20041;-61
2021/03/17 09:14:01;;;;;;;4.85;1.80;;;6.30;99.90;;;;;;5045831;28;20018;-62
2021/03/17 09:16:29;;;;;;;4.18;1.42;;;6.40;99.90;;;;;;5046072;28;20028;-62
2021/03/17 09:19:08;;;;;;;5.00;1.30;;;6.40;99.90;;;;;;5046129;28;20347;-61
2021/03/17 09:21:48;;;;;;;4.57;1.33;;;6.50;99.90;;;;;;5026787;28;20057;-62
2021/03/17 09:24:36;;;;;;;4.28;1.40;;;6.50;99.90;;;;;;5025940;28;20029;-62
2021/03/17 09:27:08;;;;;;;3.38;1.15;;;6.40;99.90;;;;;;5039645;28;20028;-62
2021/03/17 09:29:35;;;;;;;3.85;1.40;;;6.50;99.90;;;;;;5046185;28;20033;-62
2021/03/17 09:32:03;;;;;;;4.50;1.20;;;6.50;99.90;;;;;;5046151;28;20025;-62
2021/03/17 09:34:34;;;;;;;2.75;1.17;;;6.50;99.90;;;;;;5045321;28;20036;-62
2021/03/17 09:37:08;;;;;;;5.00;1.73;;;6.50;99.90;;;;;;5044863;28;20404;-61
2021/03/17 09:39:39;;;;;;;3.47;1.30;;;6.50;99.90;;;;;;5046978;28;20515;-63
2021/03/17 09:42:14;;;;;;;3.10;1.40;;;6.50;99.90;;;;;;5045910;28;20102;-64
2021/03/17 09:44:40;;;;;;;3.80;1.35;;;6.40;99.90;;;;;;5045384;28;20037;-61
2021/03/17 09:47:06;;;;;;;2.63;1.38;;;6.40;99.90;;;;;;5045019;28;20569;-62
2021/03/17 09:49:34;;;;;;;2.05;1.10;;;6.50;99.90;;;;;;5044344;28;20029;-61
2021/03/17 09:52:03;;;;;;;2.75;1.10;;;6.60;99.90;;;;;;5043041;28;20040;-62
2021/03/17 09:54:33;;;;;;;5.60;2.03;;;6.60;99.90;;;;;;5042430;28;20037;-61
2021/03/17 09:57:04;;;;;;;9.65;4.07;;;6.60;99.90;;;;;;5042575;28;20559;-61
2021/03/17 09:59:31;;;;;;;7.65;2.47;;;6.30;99.90;;;;;;5043369;28;20064;-62
2021/03/17 10:02:21;;;;;;;9.63;4.30;;;6.40;99.90;;;;;;5043525;28;20096;-61
2021/03/17 10:04:51;;;;;;;4.93;2.60;;;6.40;99.90;;;;;;5045095;28;20032;-61
2021/03/17 10:07:36;;;;;;;6.28;2.75;;;6.50;99.90;;;;;;5044964;28;20112;-61
2021/03/17 10:10:04;;;;;;;5.47;2.60;;;6.30;99.90;;;;;;5043704;28;20045;-62
2021/03/17 10:12:31;;;;;;;6.00;2.35;;;6.30;99.90;;;;;;5044845;28;20106;-62
2021/03/17 10:14:59;;;;;;;4.60;2.40;;;6.40;99.90;;;;;;5044683;28;20402;-62
2021/03/17 10:17:27;;;;;;;3.38;1.77;;;6.40;99.90;;;;;;5043884;28;20032;-62
2021/03/17 10:19:56;;;;;;;2.35;1.20;;;6.60;99.90;;;;;;5043534;28;20037;-62
2021/03/17 10:22:26;;;;;;;4.25;1.50;;;6.70;99.90;;;;;;5044123;28;20438;-61
2021/03/17 10:24:56;;;;;;;2.78;1.40;;;6.70;99.90;;;;;;5044022;28;20540;-61
2021/03/17 10:27:29;;;;;;;3.88;1.80;;;6.80;99.90;;;;;;5029075;28;20591;-65
2021/03/17 10:30:00;;;;;;;8.18;1.95;;;6.60;99.90;;;;;;5042079;28;20029;-62
2021/03/17 10:32:28;;;;;;;2.42;1.20;;;6.50;99.90;;;;;;5043572;28;20428;-61
2021/03/17 10:34:54;;;;;;;3.45;1.50;;;6.60;99.90;;;;;;5042599;28;20025;-60
2021/03/17 10:37:21;;;;;;;1.67;0.90;;;6.80;99.90;;;;;;5039266;28;20033;-61
2021/03/17 10:39:50;;;;;;;1.55;0.98;;;6.90;99.90;;;;;;5042339;28;20033;-60
2021/03/17 10:42:48;;;;;;;3.88;1.50;;;7.10;99.90;;;;;;5047363;28;20013;-61
2021/03/17 10:45:21;;;;;;;2.97;1.17;;;6.90;99.90;;;;;;5041212;28;20033;-61
2021/03/17 10:47:49;;;;;;;3.90;1.87;;;7.00;99.90;;;;;;5044395;28;20498;-61
2021/03/17 10:50:28;;;;;;;5.03;1.50;;;6.90;99.90;;;;;;5043623;28;20329;-61
2021/03/17 10:52:54;;;;;;;2.92;1.58;;;7.00;99.90;;;;;;5044827;28;20029;-60
2021/03/17 10:55:26;;;;;;;5.65;2.45;;;6.90;99.90;;;;;;5057389;28;20028;-60
2021/03/17 10:58:06;;;;;;;6.38;2.45;;;6.90;99.90;;;;;;5051285;28;20103;-60
2021/03/17 11:00:33;;;;;;;7.82;3.47;;;6.90;99.90;;;;;;5045712;28;20025;-60
2021/03/17 11:02:59;;;;;;;8.20;3.15;;;7.00;99.90;;;;;;5044901;28;20065;-60
2021/03/17 11:05:33;;;;;;;4.50;2.05;;;7.20;99.90;;;;;;5043738;28;20032;-61
2021/03/17 11:08:05;;;;;;;7.17;2.20;;;7.40;99.90;;;;;;5045182;28;20029;-60
2021/03/17 11:10:35;;;;;;;2.92;1.55;;;7.50;99.90;;;;;;5046123;28;20051;-61
2021/03/17 11:13:21;;;;;;;3.10;1.40;;;7.60;99.90;;;;;;5045546;28;20029;-60
2021/03/17 11:15:59;;;;;;;2.35;1.20;;;7.70;99.90;;;;;;5041245;28;20344;-61
2021/03/17 11:18:30;;;;;;;2.20;1.48;;;7.80;99.90;;;;;;5043359;28;20033;-60
2021/03/17 11:21:00;;;;;;;2.92;1.75;;;7.80;99.90;;;;;;5044233;28;20064;-60
2021/03/17 11:23:31;;;;;;;4.85;2.33;;;7.70;99.90;;;;;;5044355;28;20936;-60
2021/03/17 11:25:58;;;;;;;3.65;1.58;;;7.50;99.90;;;;;;5045241;28;20386;-61
2021/03/17 11:28:31;;;;;;;2.40;1.88;;;7.60;99.90;;;;;;5045328;28;20028;-61
2021/03/17 11:31:02;;;;;;;5.47;1.67;;;7.50;99.90;;;;;;5044790;28;20626;-61
2021/03/17 11:33:29;;;;;;;3.20;2.35;;;7.50;99.90;;;;;;5044272;28;20028;-61
2021/03/17 11:35:58;;;;;;;2.40;1.70;;;7.50;99.90;;;;;;5044777;28;20036;-61
2021/03/17 11:38:25;;;;;;;1.75;1.35;;;7.80;99.90;;;;;;5045196;28;20548;-61
2021/03/17 11:40:53;;;;;;;2.88;2.05;;;8.00;99.90;;;;;;5045336;28;20356;-61
2021/03/17 11:43:23;;;;;;;4.18;2.50;;;7.90;99.90;;;;;;5044893;28;20047;-61
2021/03/17 11:45:53;;;;;;;3.35;2.30;;;7.70;99.90;;;;;;5044784;28;20028;-61
2021/03/17 11:48:23;;;;;;;3.33;2.53;;;7.70;99.90;;;;;;5041169;28;20516;-60
2021/03/17 11:50:54;;;;;;;3.92;2.63;;;7.60;99.90;;;;;;5043755;28;20025;-62
2021/03/17 11:53:24;;;;;;;2.65;2.17;;;7.70;99.90;;;;;;5042105;28;20033;-61
2021/03/17 11:55:53;;;;;;;3.33;1.73;;;7.60;99.90;;;;;;5043472;28;20049;-62
2021/03/17 11:58:19;;;;;;;2.10;1.80;;;7.60;99.90;;;;;;5042623;28;20025;-61
2021/03/17 12:00:48;;;;;;;3.10;1.77;;;7.60;99.90;;;;;;5042469;28;20028;-62
2021/03/17 12:03:14;;;;;;;2.22;1.88;;;7.60;99.90;;;;;;5042950;28;20033;-62
2021/03/17 12:05:44;;;;;;;2.05;1.70;;;7.70;99.90;;;;;;5041616;28;20528;-61
2021/03/17 12:08:12;;;;;;;2.45;1.70;;;7.70;99.90;;;;;;5042453;28;20521;-61
2021/03/17 12:10:40;;;;;;;1.88;1.70;;;7.80;99.90;;;;;;5043130;28;20517;-62
2021/03/17 12:13:06;;;;;;;2.17;1.38;;;7.70;99.90;;;;;;5042884;28;20537;-61
2021/03/17 12:15:34;;;;;;;1.33;1.23;;;7.90;99.90;;;;;;5043826;28;20428;-62
2021/03/17 12:18:02;;;;;;;1.38;1.20;;;8.10;99.90;;;;;;5037097;28;20026;-61
2021/03/17 12:20:30;;;;;;;2.47;1.40;;;8.10;99.90;;;;;;5041728;28;20025;-60
2021/03/17 12:22:59;;;;;;;1.27;1.17;;;8.10;99.90;;;;;;5043052;28;20033;-61
2021/03/17 12:25:25;;;;;;;1.13;1.02;;;8.10;99.90;;;;;;5046689;28;20052;-62
2021/03/17 12:27:51;;;;;;;3.05;1.90;;;8.20;99.90;;;;;;5045435;28;20071;-61
2021/03/17 12:30:21;;;;;;;5.50;2.47;;;8.20;99.90;;;;;;5045802;28;20190;-61
2021/03/17 12:32:49;;;;;;;3.35;1.90;;;8.10;99.90;;;;;;5046510;28;20313;-61
2021/03/17 12:35:22;;;;;;;2.03;1.42;;;8.10;99.90;;;;;;5046285;28;20029;-61
2021/03/17 12:37:53;;;;;;;2.25;1.42;;;8.20;99.90;;;;;;5046621;28;20070;-61
2021/03/17 12:40:26;;;;;;;1.27;1.08;;;8.20;99.90;;;;;;5046460;28;20597;-61
2021/03/17 12:42:57;;;;;;;1.55;1.20;;;8.30;99.90;;;;;;5046257;28;20542;-61
2021/03/17 12:45:30;;;;;;;3.97;2.58;;;8.30;99.90;;;;;;5044526;28;20399;-61
2021/03/17 12:47:58;;;;;;;2.65;1.67;;;8.10;99.90;;;;;;5046080;28;20033;-60
2021/03/17 12:50:27;;;;;;;1.83;1.60;;;8.30;99.90;;;;;;5045524;28;20025;-60
2021/03/17 12:52:59;;;;;;;1.25;1.15;;;8.30;99.90;;;;;;5045125;28;20487;-61
2021/03/17 12:55:27;;;;;;;1.70;1.52;;;8.40;99.90;;;;;;5045977;28;20103;-61
2021/03/17 12:57:54;;;;;;;1.40;1.23;;;8.20;99.90;;;;;;5045459;28;20091;-61
2021/03/17 13:00:24;;;;;;;1.55;1.23;;;8.10;99.90;;;;;;5046130;28;20134;-60
2021/03/17 13:02:52;;;;;;;1.75;1.30;;;8.20;99.90;;;;;;5046013;28;20542;-60
2021/03/17 13:05:21;;;;;;;1.30;1.00;;;8.40;99.90;;;;;;5045176;28;20025;-59
2021/03/17 13:07:50;;;;;;;2.22;1.50;;;8.30;99.90;;;;;;5044283;28;20036;-59
2021/03/17 13:10:20;;;;;;;1.60;1.27;;;8.30;99.90;;;;;;5045189;28;20033;-59
2021/03/17 13:12:50;;;;;;;1.38;1.02;;;8.30;99.90;;;;;;5044582;28;20298;-59
2021/03/17 13:15:17;;;;;;;1.88;1.55;;;8.30;99.90;;;;;;5045632;28;20551;-60
2021/03/17 13:17:47;;;;;;;2.35;1.48;;;8.10;99.90;;;;;;5045670;28;20025;-59